Time;durP1;ratioP1;P1;durP2;ratioP2;P2;SDS_P1;SDS_P2;PMS_P1;PMS_P2;Temp;Humidity;BMP_temperature;BMP_pressure;BME280_temperature;BME280_humidity;BME280_pressure;Samples;Min_cycle;Max_cycle;Signal;HPM_P1;HPM_P2
2021/12/26 00:01:22;;;;;;;30.08;17.20;;;2.90;99.90;;;;;;5125183;28;20219;-83
2021/12/26 00:03:49;;;;;;;25.67;14.95;;;2.90;99.90;;;;;;5124227;28;20228;-85
2021/12/26 00:06:18;;;;;;;32.25;15.85;;;2.90;99.90;;;;;;5123407;28;20234;-84
2021/12/26 00:08:46;;;;;;;27.17;15.27;;;3.00;99.90;;;;;;5123738;28;20225;-84
2021/12/26 00:11:14;;;;;;;29.77;15.05;;;3.00;99.90;;;;;;5124212;28;20566;-85
2021/12/26 00:13:42;;;;;;;30.38;15.90;;;3.00;99.90;;;;;;5123358;28;20232;-83
2021/12/26 00:16:12;;;;;;;25.88;14.80;;;3.00;99.90;;;;;;5123256;28;20205;-83
2021/12/26 00:18:42;;;;;;;26.95;16.67;;;3.00;99.90;;;;;;5136917;28;20217;-82
2021/12/26 00:21:09;;;;;;;27.83;15.70;;;3.10;99.90;;;;;;5138255;28;20280;-80
2021/12/26 00:23:36;;;;;;;30.42;17.63;;;3.00;99.90;;;;;;5139053;28;20255;-80
2021/12/26 00:26:04;;;;;;;26.15;16.70;;;3.00;99.90;;;;;;5138765;28;20277;-81
2021/12/26 00:28:31;;;;;;;27.23;15.75;;;3.00;99.90;;;;;;5138014;28;20231;-82
2021/12/26 00:30:58;;;;;;;29.92;16.25;;;3.00;99.90;;;;;;5129247;28;20208;-85
2021/12/26 00:33:27;;;;;;;30.40;17.55;;;3.00;99.90;;;;;;5134847;28;20223;-80
2021/12/26 00:35:54;;;;;;;28.75;16.15;;;3.00;99.90;;;;;;5123490;27;20224;-80
2021/12/26 00:38:21;;;;;;;25.10;16.17;;;3.00;99.90;;;;;;5120108;28;20216;-80
2021/12/26 00:40:48;;;;;;;32.05;17.63;;;3.00;99.90;;;;;;5119439;28;20208;-80
2021/12/26 00:43:15;;;;;;;25.08;14.90;;;3.00;99.90;;;;;;5117460;28;20235;-80
2021/12/26 00:45:42;;;;;;;24.55;15.70;;;3.00;99.90;;;;;;5117453;28;20246;-82
2021/12/26 00:48:10;;;;;;;27.60;16.30;;;2.90;99.90;;;;;;5119619;28;20260;-82
2021/12/26 00:50:41;;;;;;;27.83;17.00;;;2.90;99.90;;;;;;5125586;28;20220;-80
2021/12/26 00:53:08;;;;;;;29.35;16.52;;;2.90;99.90;;;;;;5133311;28;20204;-81
2021/12/26 00:55:35;;;;;;;23.08;16.15;;;3.00;99.90;;;;;;5133839;28;20251;-82
2021/12/26 00:58:03;;;;;;;24.70;16.38;;;3.00;99.90;;;;;;5131150;28;20242;-82
2021/12/26 01:00:34;;;;;;;24.48;16.27;;;3.00;99.90;;;;;;5133431;28;20205;-82
2021/12/26 01:03:04;;;;;;;27.75;15.35;;;3.00;99.90;;;;;;5131632;28;20219;-82
2021/12/26 01:05:33;;;;;;;27.58;16.02;;;3.00;99.90;;;;;;5134935;28;20254;-82
2021/12/26 01:08:03;;;;;;;27.55;14.75;;;3.00;99.90;;;;;;5138577;28;20196;-81
2021/12/26 01:10:35;;;;;;;25.65;15.93;;;3.00;99.90;;;;;;5137531;28;20243;-82
2021/12/26 01:13:14;;;;;;;31.38;16.95;;;2.90;99.90;;;;;;5138156;28;20201;-82
2021/12/26 01:15:41;;;;;;;20.60;13.35;;;3.00;99.90;;;;;;5138002;28;20220;-81
2021/12/26 01:18:08;;;;;;;27.38;16.25;;;3.10;99.90;;;;;;5137925;28;20366;-82
2021/12/26 01:20:44;;;;;;;30.20;18.00;;;3.00;99.90;;;;;;5137922;28;20214;-81
2021/12/26 01:23:14;;;;;;;27.27;15.57;;;3.00;99.90;;;;;;5137968;28;20203;-82
2021/12/26 01:25:41;;;;;;;22.85;14.90;;;2.90;99.90;;;;;;5137310;28;20211;-81
2021/12/26 01:28:09;;;;;;;25.67;16.33;;;2.90;99.90;;;;;;5127048;28;20201;-82
2021/12/26 01:30:38;;;;;;;25.67;15.38;;;2.90;99.90;;;;;;5130782;28;20208;-83
2021/12/26 01:33:06;;;;;;;28.58;16.63;;;2.90;99.90;;;;;;5121396;28;20228;-82
2021/12/26 01:35:33;;;;;;;26.58;15.07;;;3.00;99.90;;;;;;5126059;28;20300;-82
2021/12/26 01:38:00;;;;;;;26.58;16.38;;;3.00;99.90;;;;;;5129848;28;20215;-82
2021/12/26 01:40:30;;;;;;;26.27;15.68;;;2.90;99.90;;;;;;5128554;28;20710;-80
2021/12/26 01:43:01;;;;;;;27.15;16.25;;;3.00;99.90;;;;;;5123839;28;20222;-81
2021/12/26 01:45:29;;;;;;;26.45;15.68;;;3.00;99.90;;;;;;5125823;28;20285;-81
2021/12/26 01:47:58;;;;;;;30.30;17.45;;;3.00;99.90;;;;;;5130251;28;20204;-81
2021/12/26 01:50:25;;;;;;;26.27;15.32;;;3.00;99.90;;;;;;5126390;28;20228;-81
2021/12/26 01:52:52;;;;;;;31.10;16.85;;;3.00;99.90;;;;;;5123194;28;20253;-81
2021/12/26 01:55:24;;;;;;;29.05;16.65;;;3.00;99.90;;;;;;5123695;28;20221;-82
2021/12/26 01:57:56;;;;;;;25.75;15.98;;;3.00;99.90;;;;;;5122418;28;20212;-82
2021/12/26 02:00:26;;;;;;;30.58;17.05;;;3.00;99.90;;;;;;5122008;28;20204;-81
2021/12/26 02:02:53;;;;;;;29.55;16.50;;;3.00;99.90;;;;;;5118120;28;20208;-82
2021/12/26 02:05:20;;;;;;;27.77;16.02;;;2.90;99.90;;;;;;5118219;28;20307;-82
2021/12/26 02:07:47;;;;;;;35.50;17.15;;;2.90;99.90;;;;;;5118845;28;20228;-82
2021/12/26 02:10:14;;;;;;;33.97;16.50;;;3.00;99.90;;;;;;5118305;28;20217;-82
2021/12/26 02:12:42;;;;;;;28.60;17.50;;;2.90;99.90;;;;;;5119312;28;20582;-82
2021/12/26 02:15:11;;;;;;;28.08;16.35;;;2.90;99.90;;;;;;5119679;28;20228;-81
2021/12/26 02:17:38;;;;;;;31.52;16.70;;;2.90;99.90;;;;;;5118147;28;20679;-81
2021/12/26 02:20:18;;;;;;;30.83;16.98;;;2.90;99.90;;;;;;5119338;28;20204;-81
2021/12/26 02:22:50;;;;;;;29.42;16.17;;;2.90;99.90;;;;;;5118999;28;20368;-82
2021/12/26 02:25:29;;;;;;;26.52;15.90;;;2.90;99.90;;;;;;5118793;28;20228;-82
2021/12/26 02:27:55;;;;;;;28.00;16.08;;;2.90;99.90;;;;;;5118852;28;20224;-84
2021/12/26 02:30:23;;;;;;;31.33;16.50;;;2.90;99.90;;;;;;5119077;28;20251;-83
2021/12/26 02:32:51;;;;;;;25.35;16.60;;;2.90;99.90;;;;;;5123962;28;20462;-82
2021/12/26 02:35:21;;;;;;;20.95;12.18;;;2.90;99.90;;;;;;5125590;28;20224;-82
2021/12/26 02:37:48;;;;;;;26.58;15.35;;;3.00;99.90;;;;;;5121016;28;20290;-81
2021/12/26 02:40:17;;;;;;;25.70;15.35;;;3.00;99.90;;;;;;5121369;28;20239;-81
2021/12/26 02:42:44;;;;;;;26.90;15.45;;;3.00;99.90;;;;;;5132072;28;20196;-82
2021/12/26 02:45:11;;;;;;;26.80;16.33;;;2.90;99.90;;;;;;5126536;28;20323;-82
2021/12/26 02:47:41;;;;;;;28.25;15.70;;;2.90;99.90;;;;;;5121992;28;20204;-82
2021/12/26 02:50:11;;;;;;;28.65;15.75;;;2.90;99.90;;;;;;5125016;28;20224;-82
2021/12/26 02:52:40;;;;;;;28.95;16.92;;;2.90;99.90;;;;;;5117290;28;20434;-82
2021/12/26 02:55:08;;;;;;;33.60;18.42;;;2.90;99.90;;;;;;5117195;28;20227;-80
2021/12/26 02:57:36;;;;;;;30.25;18.30;;;2.80;99.90;;;;;;5120730;28;20269;-81
2021/12/26 03:00:05;;;;;;;24.45;15.27;;;2.80;99.90;;;;;;5120978;28;20337;-83
2021/12/26 03:02:32;;;;;;;28.38;16.30;;;2.80;99.90;;;;;;5119861;28;20239;-82
2021/12/26 03:04:59;;;;;;;27.25;17.42;;;2.80;99.90;;;;;;5120573;28;20271;-81
2021/12/26 03:07:26;;;;;;;24.42;14.80;;;2.80;99.90;;;;;;5126952;28;20692;-82
2021/12/26 03:09:59;;;;;;;33.70;18.42;;;2.80;99.90;;;;;;5127766;28;20244;-81
2021/12/26 03:12:27;;;;;;;28.55;14.68;;;2.90;99.90;;;;;;5129410;28;20253;-83
2021/12/26 03:14:53;;;;;;;29.35;17.60;;;2.90;99.90;;;;;;5129336;28;20304;-82
2021/12/26 03:17:20;;;;;;;24.23;14.55;;;2.90;99.90;;;;;;5123222;28;20201;-83
2021/12/26 03:19:47;;;;;;;29.10;15.40;;;2.90;99.90;;;;;;5122677;28;20211;-81
2021/12/26 03:22:15;;;;;;;29.73;15.85;;;2.90;99.90;;;;;;5123136;28;20525;-82
2021/12/26 03:24:43;;;;;;;26.45;15.48;;;2.90;99.90;;;;;;5123464;28;20212;-81
2021/12/26 03:27:13;;;;;;;25.40;15.88;;;2.90;99.90;;;;;;5122711;28;20205;-82
2021/12/26 03:29:40;;;;;;;25.42;14.57;;;2.90;99.90;;;;;;5124895;28;20212;-80
2021/12/26 03:32:09;;;;;;;28.25;16.45;;;2.90;99.90;;;;;;5128793;28;20200;-85
2021/12/26 03:34:35;;;;;;;28.45;16.40;;;2.90;99.90;;;;;;5139832;27;20360;-85
2021/12/26 03:37:03;;;;;;;22.70;14.48;;;2.90;99.90;;;;;;5138883;28;20199;-84
2021/12/26 03:39:30;;;;;;;24.90;15.88;;;2.90;99.90;;;;;;5138762;28;20193;-85
2021/12/26 03:41:56;;;;;;;24.85;13.98;;;2.90;99.90;;;;;;5139140;28;20239;-83
2021/12/26 03:44:25;;;;;;;29.15;15.98;;;2.90;99.90;;;;;;5136880;28;20341;-82
2021/12/26 03:46:52;;;;;;;24.23;15.07;;;2.90;99.90;;;;;;5126242;28;20208;-81
2021/12/26 03:49:19;;;;;;;28.52;15.93;;;2.90;99.90;;;;;;5123540;28;20204;-83
2021/12/26 03:51:45;;;;;;;23.65;14.15;;;2.90;99.90;;;;;;5138399;28;20211;-85
2021/12/26 03:54:13;;;;;;;22.77;13.60;;;2.90;99.90;;;;;;5135235;28;20228;-80
2021/12/26 03:56:40;;;;;;;24.73;16.02;;;2.90;99.90;;;;;;5131823;28;20204;-81
2021/12/26 03:59:07;;;;;;;27.92;15.10;;;2.90;99.90;;;;;;5130785;28;20209;-81
2021/12/26 04:01:35;;;;;;;25.67;14.40;;;2.90;99.90;;;;;;5128800;28;20291;-81
2021/12/26 04:04:03;;;;;;;28.33;16.73;;;2.90;99.90;;;;;;5128608;28;20691;-81
2021/12/26 04:06:30;;;;;;;30.65;16.58;;;3.00;99.90;;;;;;5127494;28;20350;-80
2021/12/26 04:08:57;;;;;;;30.13;16.08;;;2.90;99.90;;;;;;5118623;28;20646;-79
2021/12/26 04:11:24;;;;;;;26.15;15.85;;;2.90;99.90;;;;;;5117305;27;20320;-82
2021/12/26 04:13:52;;;;;;;28.15;15.82;;;3.00;99.90;;;;;;5125666;28;20216;-80
2021/12/26 04:16:19;;;;;;;25.15;13.70;;;3.00;99.90;;;;;;5135944;28;20264;-82
2021/12/26 04:18:47;;;;;;;23.50;14.10;;;3.00;99.90;;;;;;5135788;28;20705;-82
2021/12/26 04:21:14;;;;;;;22.92;14.68;;;3.00;99.90;;;;;;5131008;28;20287;-81
2021/12/26 04:23:41;;;;;;;25.85;15.18;;;3.00;99.90;;;;;;5128082;28;20230;-79
2021/12/26 04:26:08;;;;;;;26.42;15.55;;;3.00;99.90;;;;;;5118620;28;20220;-80
2021/12/26 04:28:35;;;;;;;23.45;13.70;;;3.00;99.90;;;;;;5119959;28;20197;-81
2021/12/26 04:31:02;;;;;;;23.70;14.85;;;3.00;99.90;;;;;;5117046;28;20694;-80
2021/12/26 04:33:29;;;;;;;24.50;14.82;;;2.90;99.90;;;;;;5119708;28;20692;-79
2021/12/26 04:35:57;;;;;;;25.25;15.43;;;2.90;99.90;;;;;;5127355;28;20248;-84
2021/12/26 04:38:24;;;;;;;23.52;15.07;;;2.90;99.90;;;;;;5138231;28;20201;-83
2021/12/26 04:40:52;;;;;;;24.83;15.63;;;2.90;99.90;;;;;;5138161;28;20193;-83
2021/12/26 04:43:20;;;;;;;28.75;16.27;;;2.90;99.90;;;;;;5138661;28;20211;-85
2021/12/26 04:45:47;;;;;;;25.02;14.80;;;3.00;99.90;;;;;;5138684;28;20217;-84
2021/12/26 04:48:15;;;;;;;23.02;14.85;;;3.00;99.90;;;;;;5138461;28;20196;-82
2021/12/26 04:50:42;;;;;;;26.77;16.10;;;2.90;99.90;;;;;;5137814;28;20235;-83
2021/12/26 04:53:11;;;;;;;28.27;15.40;;;2.90;99.90;;;;;;5137963;28;20208;-84
2021/12/26 04:55:39;;;;;;;23.98;15.00;;;2.90;99.90;;;;;;5135555;28;20271;-81
2021/12/26 04:58:06;;;;;;;26.02;15.93;;;3.00;99.90;;;;;;5122726;28;20332;-81
2021/12/26 05:00:34;;;;;;;27.27;16.20;;;3.00;99.90;;;;;;5122453;28;20228;-82
2021/12/26 05:03:04;;;;;;;26.40;15.57;;;3.00;99.90;;;;;;5119380;28;20277;-80
2021/12/26 05:05:31;;;;;;;23.33;12.93;;;3.00;99.90;;;;;;5118065;28;20228;-81
2021/12/26 05:07:58;;;;;;;25.83;14.82;;;3.00;99.90;;;;;;5119545;28;20673;-79
2021/12/26 05:10:28;;;;;;;25.13;14.73;;;3.00;99.90;;;;;;5117624;28;20240;-80
2021/12/26 05:12:56;;;;;;;24.45;15.60;;;2.90;99.90;;;;;;5118371;27;20208;-79
2021/12/26 05:15:23;;;;;;;25.85;14.60;;;3.00;99.90;;;;;;5122642;28;20225;-79
2021/12/26 05:17:51;;;;;;;23.40;14.32;;;3.00;99.90;;;;;;5120280;27;20210;-79
2021/12/26 05:20:19;;;;;;;25.05;14.95;;;3.00;99.90;;;;;;5117218;28;20701;-79
2021/12/26 05:22:47;;;;;;;24.45;14.35;;;3.00;99.90;;;;;;5116731;28;20277;-79
2021/12/26 05:25:14;;;;;;;23.40;14.73;;;3.00;99.90;;;;;;5117831;28;20765;-80
2021/12/26 05:27:43;;;;;;;24.60;15.10;;;3.10;99.90;;;;;;5117543;28;20284;-81
2021/12/26 05:30:13;;;;;;;23.90;15.15;;;3.00;99.90;;;;;;5119031;28;20224;-78
2021/12/26 05:32:40;;;;;;;24.75;14.90;;;3.00;99.90;;;;;;5118296;28;20302;-79
2021/12/26 05:35:09;;;;;;;23.65;15.15;;;3.00;99.90;;;;;;5119006;28;20216;-80
2021/12/26 05:37:36;;;;;;;27.85;16.15;;;3.00;99.90;;;;;;5120081;28;20227;-80
2021/12/26 05:40:05;;;;;;;24.23;14.70;;;3.00;99.90;;;;;;5120061;28;20673;-79
2021/12/26 05:42:33;;;;;;;24.40;15.02;;;3.00;99.90;;;;;;5119993;28;20617;-80
2021/12/26 05:45:01;;;;;;;25.08;14.20;;;2.90;99.90;;;;;;5120083;28;20244;-80
2021/12/26 05:47:29;;;;;;;24.67;15.77;;;2.90;99.90;;;;;;5122083;28;20268;-81
2021/12/26 05:49:55;;;;;;;30.52;16.85;;;2.90;99.90;;;;;;5134027;28;20192;-81
2021/12/26 05:52:23;;;;;;;25.30;15.80;;;2.90;99.90;;;;;;5137409;27;20208;-81
2021/12/26 05:54:50;;;;;;;24.65;15.27;;;2.90;99.90;;;;;;5137378;28;20227;-82
2021/12/26 05:57:17;;;;;;;26.17;14.98;;;3.00;99.90;;;;;;5137669;28;20189;-81
2021/12/26 05:59:44;;;;;;;23.20;15.07;;;3.00;99.90;;;;;;5137364;28;20212;-80
2021/12/26 06:02:13;;;;;;;24.30;15.05;;;3.00;99.90;;;;;;5131972;28;20272;-80
2021/12/26 06:04:40;;;;;;;24.95;15.10;;;3.00;99.90;;;;;;5125642;28;20304;-79
2021/12/26 06:07:07;;;;;;;25.42;15.25;;;3.00;99.90;;;;;;5121125;28;20211;-82
2021/12/26 06:09:34;;;;;;;25.35;14.70;;;3.00;99.90;;;;;;5120806;28;20200;-79
2021/12/26 06:12:01;;;;;;;26.70;15.65;;;2.90;99.90;;;;;;5126866;28;20225;-81
2021/12/26 06:14:28;;;;;;;26.83;14.90;;;2.90;99.90;;;;;;5127924;28;20228;-81
2021/12/26 06:16:55;;;;;;;21.90;14.35;;;2.90;99.90;;;;;;5129855;28;20645;-81
2021/12/26 06:19:23;;;;;;;24.20;15.50;;;2.90;99.90;;;;;;5130105;28;20212;-81
2021/12/26 06:21:50;;;;;;;25.42;15.45;;;2.90;99.90;;;;;;5133528;28;20212;-80
2021/12/26 06:24:17;;;;;;;29.60;15.77;;;2.90;99.90;;;;;;5133539;28;20242;-80
2021/12/26 06:26:46;;;;;;;23.35;15.00;;;2.90;99.90;;;;;;5135731;28;20200;-81
2021/12/26 06:29:13;;;;;;;22.50;14.45;;;2.90;99.90;;;;;;5134130;28;20223;-80
2021/12/26 06:31:40;;;;;;;28.55;16.33;;;2.90;99.90;;;;;;5132959;28;20235;-79
2021/12/26 06:34:07;;;;;;;26.65;13.93;;;2.90;99.90;;;;;;5134185;28;20236;-81
2021/12/26 06:36:35;;;;;;;26.50;15.32;;;2.90;99.90;;;;;;5131609;28;20283;-81
2021/12/26 06:39:02;;;;;;;30.15;14.50;;;2.90;99.90;;;;;;5126782;28;20209;-81
2021/12/26 06:41:29;;;;;;;32.40;15.55;;;2.90;99.90;;;;;;5122723;28;20200;-81
2021/12/26 06:43:56;;;;;;;27.38;16.20;;;2.90;99.90;;;;;;5119737;28;20661;-81
2021/12/26 06:46:23;;;;;;;23.30;14.45;;;2.90;99.90;;;;;;5120530;28;20265;-80
2021/12/26 06:48:50;;;;;;;26.55;14.63;;;2.90;99.90;;;;;;5121075;28;20580;-80
2021/12/26 06:51:19;;;;;;;27.98;16.35;;;2.90;99.90;;;;;;5119693;28;20310;-81
2021/12/26 06:53:48;;;;;;;22.92;14.48;;;2.90;99.90;;;;;;5123964;28;20611;-81
2021/12/26 06:56:14;;;;;;;25.60;14.80;;;3.00;99.90;;;;;;5137968;28;20258;-80
2021/12/26 06:58:41;;;;;;;23.98;13.82;;;3.00;99.90;;;;;;5124278;28;20209;-80
2021/12/26 07:01:10;;;;;;;27.35;14.98;;;3.00;99.90;;;;;;5122167;28;20291;-80
2021/12/26 07:03:37;;;;;;;26.00;14.93;;;3.00;99.90;;;;;;5122139;27;20215;-80
2021/12/26 07:06:05;;;;;;;27.48;14.45;;;2.90;99.90;;;;;;5121141;28;20796;-81
2021/12/26 07:08:32;;;;;;;26.70;14.95;;;2.80;99.90;;;;;;5122469;27;20207;-81
2021/12/26 07:11:01;;;;;;;24.95;15.63;;;2.90;99.90;;;;;;5121145;28;20259;-81
2021/12/26 07:13:27;;;;;;;24.35;16.00;;;2.90;99.90;;;;;;5132661;28;20264;-80
2021/12/26 07:15:54;;;;;;;29.58;15.88;;;2.90;99.90;;;;;;5138526;27;20277;-81
2021/12/26 07:18:21;;;;;;;24.02;14.68;;;2.90;99.90;;;;;;5125501;28;20299;-82
2021/12/26 07:20:48;;;;;;;25.80;14.35;;;2.90;99.90;;;;;;5119672;28;20215;-81
2021/12/26 07:23:15;;;;;;;23.80;14.73;;;3.00;99.90;;;;;;5120625;28;20301;-81
2021/12/26 07:25:42;;;;;;;23.95;15.13;;;3.00;99.90;;;;;;5119014;28;20290;-81
2021/12/26 07:28:10;;;;;;;30.50;16.80;;;3.00;99.90;;;;;;5118924;28;20205;-81
2021/12/26 07:30:37;;;;;;;26.20;14.45;;;2.90;99.90;;;;;;5122319;28;20228;-81
2021/12/26 07:33:04;;;;;;;25.58;14.30;;;3.00;99.90;;;;;;5125468;28;20214;-81
2021/12/26 07:35:31;;;;;;;26.45;14.90;;;2.90;99.90;;;;;;5119447;28;20287;-80
2021/12/26 07:37:58;;;;;;;23.77;15.55;;;2.90;99.90;;;;;;5122196;28;20215;-80
2021/12/26 07:40:27;;;;;;;25.50;16.08;;;2.90;99.90;;;;;;5123512;28;20205;-80
2021/12/26 07:42:54;;;;;;;25.05;14.93;;;2.90;99.90;;;;;;5126635;28;20639;-81
2021/12/26 07:45:22;;;;;;;21.52;14.60;;;3.00;99.90;;;;;;5129799;28;20232;-80
2021/12/26 07:47:49;;;;;;;29.35;16.92;;;3.00;99.90;;;;;;5133267;28;20321;-80
2021/12/26 07:50:16;;;;;;;29.95;15.40;;;3.00;99.90;;;;;;5136198;28;20276;-80
2021/12/26 07:52:45;;;;;;;30.10;15.23;;;3.00;99.90;;;;;;5134575;28;20231;-81
2021/12/26 07:55:13;;;;;;;26.60;16.77;;;3.00;99.90;;;;;;5129560;28;20314;-81
2021/12/26 07:57:40;;;;;;;27.73;15.10;;;3.00;99.90;;;;;;5127462;28;20204;-81
2021/12/26 08:00:09;;;;;;;26.20;16.00;;;3.00;99.90;;;;;;5126055;28;20208;-81
2021/12/26 08:02:38;;;;;;;29.73;16.40;;;3.00;99.90;;;;;;5125016;28;20713;-81
2021/12/26 08:05:06;;;;;;;28.48;16.25;;;3.00;99.90;;;;;;5121234;28;20228;-82
2021/12/26 08:07:33;;;;;;;23.65;14.90;;;3.10;99.90;;;;;;5119617;28;20240;-81
2021/12/26 08:10:00;;;;;;;29.38;16.85;;;3.10;99.90;;;;;;5119921;28;20188;-81
2021/12/26 08:12:27;;;;;;;23.95;14.88;;;3.10;99.90;;;;;;5123602;28;20260;-82
2021/12/26 08:14:54;;;;;;;26.83;16.27;;;3.10;99.90;;;;;;5131426;28;20243;-81
2021/12/26 08:17:21;;;;;;;25.48;15.27;;;3.10;99.90;;;;;;5125119;28;20235;-82
2021/12/26 08:19:49;;;;;;;29.42;15.18;;;3.10;99.90;;;;;;5129210;28;20201;-80
2021/12/26 08:22:16;;;;;;;26.90;15.23;;;3.10;99.90;;;;;;5123852;28;20201;-81
2021/12/26 08:24:43;;;;;;;28.90;16.63;;;3.10;99.90;;;;;;5121056;28;20220;-81
2021/12/26 08:27:09;;;;;;;25.63;14.73;;;3.20;99.90;;;;;;5121370;28;20200;-81
2021/12/26 08:29:36;;;;;;;26.17;15.77;;;3.20;99.90;;;;;;5123775;28;20574;-81
2021/12/26 08:32:04;;;;;;;24.83;15.82;;;3.30;99.90;;;;;;5122370;28;20231;-81
2021/12/26 08:34:31;;;;;;;26.00;15.13;;;3.40;99.90;;;;;;5119916;28;20224;-81
2021/12/26 08:37:01;;;;;;;26.90;15.27;;;3.40;99.90;;;;;;5123385;28;20489;-81
2021/12/26 08:39:30;;;;;;;24.60;14.85;;;3.30;99.90;;;;;;5131409;28;20204;-83
2021/12/26 08:41:57;;;;;;;24.15;16.33;;;3.30;99.90;;;;;;5132839;28;20240;-81
2021/12/26 08:44:25;;;;;;;25.92;14.48;;;3.20;99.90;;;;;;5130647;28;20231;-77
2021/12/26 08:46:53;;;;;;;29.48;17.02;;;3.20;99.90;;;;;;5116351;28;20547;-78
2021/12/26 08:49:21;;;;;;;25.88;15.77;;;3.20;99.90;;;;;;5117700;28;20235;-79
2021/12/26 08:51:48;;;;;;;24.98;15.60;;;3.10;99.90;;;;;;5116230;28;20564;-77
2021/12/26 08:54:17;;;;;;;29.27;15.90;;;3.20;99.90;;;;;;5115605;28;20221;-79
2021/12/26 08:56:44;;;;;;;28.27;16.35;;;3.30;99.90;;;;;;5115864;28;20669;-78
2021/12/26 08:59:12;;;;;;;28.75;16.33;;;3.40;99.90;;;;;;5116099;28;20200;-78
2021/12/26 09:01:39;;;;;;;28.38;17.52;;;3.40;99.90;;;;;;5120005;27;20326;-78
2021/12/26 09:04:06;;;;;;;29.17;17.00;;;3.50;99.90;;;;;;5120892;28;20291;-77
2021/12/26 09:06:33;;;;;;;27.73;15.88;;;3.40;99.90;;;;;;5122068;28;20253;-80
2021/12/26 09:09:00;;;;;;;29.33;15.88;;;3.40;99.90;;;;;;5122417;28;20209;-79
2021/12/26 09:11:28;;;;;;;28.48;15.43;;;3.40;99.90;;;;;;5121034;28;20251;-78
2021/12/26 09:13:55;;;;;;;28.38;16.52;;;3.50;99.90;;;;;;5121326;28;20215;-79
2021/12/26 09:16:22;;;;;;;24.92;14.63;;;3.60;99.90;;;;;;5121018;28;20287;-76
2021/12/26 09:18:50;;;;;;;28.98;16.13;;;3.70;99.90;;;;;;5122306;28;20303;-79
2021/12/26 09:21:17;;;;;;;24.75;14.73;;;3.70;99.90;;;;;;5122100;28;20774;-77
2021/12/26 09:23:46;;;;;;;30.05;15.82;;;3.80;99.90;;;;;;5120940;28;20208;-78
2021/12/26 09:26:15;;;;;;;24.33;14.93;;;3.80;99.90;;;;;;5120429;28;20273;-78
2021/12/26 09:28:44;;;;;;;26.33;15.25;;;3.80;99.90;;;;;;5115873;28;20208;-77
2021/12/26 09:31:10;;;;;;;25.83;15.27;;;3.70;99.90;;;;;;5121028;28;20230;-80
2021/12/26 09:33:37;;;;;;;23.60;14.93;;;3.60;99.90;;;;;;5127590;28;20304;-80
2021/12/26 09:36:05;;;;;;;22.88;15.23;;;3.70;99.90;;;;;;5129888;28;20291;-80
2021/12/26 09:38:32;;;;;;;25.33;16.40;;;3.70;99.90;;;;;;5130767;28;20204;-79
2021/12/26 09:40:59;;;;;;;27.17;16.17;;;3.80;99.90;;;;;;5132015;28;20208;-79
2021/12/26 09:43:27;;;;;;;26.17;15.80;;;3.70;99.90;;;;;;5131838;28;20230;-79
2021/12/26 09:45:56;;;;;;;27.27;15.30;;;3.70;99.90;;;;;;5131816;28;20614;-79
2021/12/26 09:48:23;;;;;;;24.45;16.55;;;3.80;99.90;;;;;;5131209;28;20204;-79
2021/12/26 09:50:51;;;;;;;26.60;15.45;;;3.80;99.90;;;;;;5128845;28;20615;-78
2021/12/26 09:53:20;;;;;;;22.45;14.20;;;3.80;99.90;;;;;;5131242;28;20224;-81
2021/12/26 09:55:47;;;;;;;21.75;13.60;;;4.00;99.90;;;;;;5132342;28;20244;-81
2021/12/26 09:58:15;;;;;;;25.65;15.43;;;4.10;99.90;;;;;;5131913;27;20637;-80
2021/12/26 10:00:43;;;;;;;21.10;14.60;;;4.10;99.90;;;;;;5132229;28;20219;-78
2021/12/26 10:03:19;;;;;;;22.45;15.27;;;4.10;99.90;;;;;;5133348;28;20204;-80
2021/12/26 10:06:06;;;;;;;21.23;14.75;;;4.10;99.90;;;;;;5134646;28;20288;-79
2021/12/26 10:08:36;;;;;;;27.42;15.77;;;4.30;99.90;;;;;;5133109;28;20214;-79
2021/12/26 10:11:08;;;;;;;24.15;15.40;;;4.10;99.90;;;;;;5134821;28;20234;-80
2021/12/26 10:13:44;;;;;;;23.08;14.27;;;4.20;99.90;;;;;;5135047;28;20227;-78
2021/12/26 10:16:12;;;;;;;25.48;14.43;;;4.20;99.90;;;;;;5137756;28;20200;-78
2021/12/26 10:18:41;;;;;;;22.02;15.07;;;4.40;99.90;;;;;;5135265;28;20701;-79
2021/12/26 10:21:38;;;;;;;27.00;15.00;;;4.50;99.90;;;;;;5135986;28;20219;-79
2021/12/26 10:24:11;;;;;;;22.35;15.20;;;4.50;99.90;;;;;;5137274;28;20249;-79
2021/12/26 10:26:40;;;;;;;23.23;14.95;;;4.40;99.90;;;;;;5135931;28;20264;-78
2021/12/26 10:29:16;;;;;;;22.70;15.00;;;4.40;99.90;;;;;;5135194;28;20264;-80
2021/12/26 10:31:56;;;;;;;23.20;13.88;;;4.30;99.90;;;;;;5125818;28;20220;-80
2021/12/26 10:34:27;;;;;;;25.58;15.20;;;4.40;99.90;;;;;;5135617;28;20220;-79
2021/12/26 10:36:56;;;;;;;26.05;16.33;;;4.50;99.90;;;;;;5137068;28;20197;-79
2021/12/26 10:39:25;;;;;;;25.65;15.00;;;4.30;99.90;;;;;;5134903;28;20234;-81
2021/12/26 10:41:55;;;;;;;26.20;15.30;;;4.40;99.90;;;;;;5136020;28;20193;-79
2021/12/26 10:44:29;;;;;;;23.73;14.82;;;4.40;99.90;;;;;;5135906;28;20224;-79
2021/12/26 10:46:59;;;;;;;24.15;15.43;;;4.50;99.90;;;;;;5129665;28;20233;-80
2021/12/26 10:49:33;;;;;;;22.60;15.38;;;4.60;99.90;;;;;;5119191;28;20260;-80
2021/12/26 10:52:01;;;;;;;23.70;14.68;;;4.60;99.90;;;;;;5123987;28;20296;-80
2021/12/26 10:54:32;;;;;;;25.52;15.65;;;4.60;99.90;;;;;;5126565;28;20662;-80
2021/12/26 10:57:17;;;;;;;26.23;16.10;;;4.70;99.90;;;;;;5126131;28;20216;-80
2021/12/26 10:59:45;;;;;;;22.73;14.30;;;4.80;99.90;;;;;;5129467;28;20201;-80
2021/12/26 11:02:23;;;;;;;23.25;15.55;;;4.80;99.90;;;;;;5135769;28;20208;-77
2021/12/26 11:05:04;;;;;;;25.65;15.35;;;4.60;99.90;;;;;;5136857;28;20463;-78
2021/12/26 11:07:42;;;;;;;23.90;14.98;;;4.60;99.90;;;;;;5135556;28;20226;-79
2021/12/26 11:10:13;;;;;;;23.30;13.80;;;4.60;99.90;;;;;;5128667;28;20185;-79
2021/12/26 11:12:53;;;;;;;22.70;14.65;;;4.70;99.90;;;;;;5118324;28;20288;-80
2021/12/26 11:15:21;;;;;;;22.45;14.75;;;4.70;99.90;;;;;;5121356;28;20228;-79
2021/12/26 11:17:51;;;;;;;23.10;15.50;;;4.70;99.90;;;;;;5121706;28;20349;-79
2021/12/26 11:20:32;;;;;;;24.50;15.43;;;4.80;99.90;;;;;;5120692;28;20287;-80
2021/12/26 11:23:08;;;;;;;23.88;14.57;;;4.80;99.90;;;;;;5125188;28;20623;-79
2021/12/26 11:25:36;;;;;;;23.63;14.70;;;4.90;99.90;;;;;;5119671;28;20261;-79
2021/12/26 11:28:03;;;;;;;24.00;15.35;;;4.90;99.90;;;;;;5117349;28;20213;-80
2021/12/26 11:30:30;;;;;;;26.50;16.05;;;4.90;99.40;;;;;;5117507;28;20205;-80
2021/12/26 11:32:59;;;;;;;23.85;15.10;;;4.90;98.80;;;;;;5118867;28;20225;-80
2021/12/26 11:35:29;;;;;;;23.30;15.07;;;5.00;98.60;;;;;;5118928;28;20319;-79
2021/12/26 11:37:57;;;;;;;23.20;15.65;;;5.00;98.60;;;;;;5118141;28;20237;-79
2021/12/26 11:40:25;;;;;;;21.00;14.55;;;5.10;98.00;;;;;;5120956;28;20201;-81
2021/12/26 11:43:27;;;;;;;21.35;14.55;;;4.90;98.90;;;;;;5120935;28;20220;-78
2021/12/26 11:46:01;;;;;;;21.13;14.40;;;5.00;99.50;;;;;;5121262;28;20240;-79
2021/12/26 11:48:59;;;;;;;25.00;14.18;;;5.20;98.90;;;;;;5122731;28;20199;-80
2021/12/26 11:52:00;;;;;;;23.17;14.50;;;5.20;98.20;;;;;;5121689;28;20215;-79
2021/12/26 11:54:42;;;;;;;23.92;14.07;;;5.20;97.90;;;;;;5121982;28;20228;-80
2021/12/26 11:57:27;;;;;;;24.33;14.73;;;5.30;98.10;;;;;;5119300;28;20212;-79
2021/12/26 12:00:06;;;;;;;23.15;14.40;;;5.20;97.00;;;;;;5119255;28;20585;-80
2021/12/26 12:02:40;;;;;;;22.80;13.98;;;5.30;96.50;;;;;;5120175;28;20672;-79
2021/12/26 12:05:09;;;;;;;21.15;13.85;;;5.30;96.70;;;;;;5122209;28;20690;-82
2021/12/26 12:07:50;;;;;;;26.17;15.13;;;5.30;96.70;;;;;;5136653;28;20209;-80
2021/12/26 12:10:36;;;;;;;25.92;15.00;;;5.30;96.20;;;;;;5138156;28;20204;-82
2021/12/26 12:13:05;;;;;;;23.88;14.70;;;5.20;97.80;;;;;;5133879;28;20235;-79
2021/12/26 12:15:52;;;;;;;26.80;15.55;;;5.20;98.70;;;;;;5135661;28;20232;-79
2021/12/26 12:18:22;;;;;;;21.48;14.57;;;5.40;98.80;;;;;;5133537;28;20287;-79
2021/12/26 12:21:12;;;;;;;24.60;14.88;;;5.40;97.80;;;;;;5132799;28;20275;-78
2021/12/26 12:23:59;;;;;;;24.63;16.38;;;5.50;98.20;;;;;;5132404;27;20204;-80
2021/12/26 12:26:46;;;;;;;27.58;15.07;;;5.70;97.40;;;;;;5127912;28;20239;-79
2021/12/26 12:29:15;;;;;;;21.85;14.02;;;5.70;96.90;;;;;;5128786;28;20287;-79
2021/12/26 12:31:42;;;;;;;23.38;13.57;;;5.80;96.20;;;;;;5124372;27;20288;-79
2021/12/26 12:34:12;;;;;;;22.17;15.07;;;5.80;95.50;;;;;;5122992;28;20262;-81
2021/12/26 12:36:40;;;;;;;29.95;16.35;;;5.80;94.70;;;;;;5122610;28;20205;-82
2021/12/26 12:39:13;;;;;;;23.35;14.50;;;5.70;94.40;;;;;;5122430;28;20216;-81
2021/12/26 12:41:43;;;;;;;24.83;15.00;;;5.70;95.20;;;;;;5125234;28;20236;-81
2021/12/26 12:44:29;;;;;;;30.17;15.48;;;5.60;95.40;;;;;;5124325;28;20220;-80
2021/12/26 12:46:59;;;;;;;24.95;15.27;;;5.50;95.50;;;;;;5119539;28;20212;-78